createdAt,value
2019-01-23T00:00:43.487Z,47.93
2019-01-23T00:03:11.979Z,42.30
2019-01-23T00:05:40.431Z,42.43
2019-01-23T00:08:08.855Z,40.87
2019-01-23T00:10:37.290Z,38.13
2019-01-23T00:13:05.727Z,41.90
2019-01-23T00:15:34.155Z,36.87
2019-01-23T00:18:02.654Z,45.03
2019-01-23T00:20:31.183Z,35.57
2019-01-23T00:22:59.609Z,36.17
2019-01-23T00:25:28.035Z,40.43
2019-01-23T00:27:56.475Z,40.73
2019-01-23T00:30:24.964Z,34.70
2019-01-23T00:32:53.459Z,39.53
2019-01-23T00:35:21.895Z,39.90
2019-01-23T00:37:50.319Z,36.77
2019-01-23T00:40:18.759Z,41.20
2019-01-23T00:42:47.183Z,36.23
2019-01-23T00:45:16.243Z,38.40
2019-01-23T00:47:45.023Z,37.87
2019-01-23T00:50:14.992Z,38.73
2019-01-23T00:52:43.579Z,34.80
2019-01-23T00:55:14.941Z,34.30
2019-01-23T00:57:43.506Z,31.40
2019-01-23T01:00:20.779Z,32.30
2019-01-23T01:02:50.106Z,35.13
2019-01-23T01:05:19.092Z,28.90
2019-01-23T01:07:47.655Z,27.47
2019-01-23T01:10:18.444Z,34.63
2019-01-23T01:12:47.303Z,34.47
2019-01-23T01:15:16.067Z,34.80
2019-01-23T01:17:44.783Z,32.73
2019-01-23T01:20:15.300Z,33.67
2019-01-23T01:22:43.796Z,27.50
2019-01-23T01:25:17.735Z,30.40
2019-01-23T01:27:46.328Z,30.77
2019-01-23T01:30:20.398Z,32.13
2019-01-23T01:32:48.820Z,26.43
2019-01-23T01:35:17.240Z,31.27
2019-01-23T01:37:45.683Z,27.73
2019-01-23T01:40:16.855Z,31.43
2019-01-23T01:42:46.432Z,29.83
2019-01-23T01:45:16.303Z,28.03
2019-01-23T01:47:44.811Z,29.17
2019-01-23T01:50:18.217Z,28.97
2019-01-23T01:52:46.906Z,24.60
2019-01-23T01:55:15.672Z,29.63
2019-01-23T01:57:45.066Z,31.03
2019-01-23T02:00:16.501Z,27.03
2019-01-23T02:02:44.995Z,25.27
2019-01-23T02:05:13.671Z,33.10
2019-01-23T02:07:42.099Z,30.37
2019-01-23T02:10:13.371Z,29.93
2019-01-23T02:12:41.867Z,28.43
2019-01-23T02:15:12.248Z,32.33
2019-01-23T02:17:40.735Z,29.30
2019-01-23T02:20:23.352Z,27.60
2019-01-23T02:22:51.874Z,33.80
2019-01-23T02:25:20.675Z,30.07
2019-01-23T02:27:49.779Z,27.43
2019-01-23T02:30:20.444Z,34.73
2019-01-23T02:32:48.887Z,29.40
2019-01-23T02:35:17.390Z,36.37
2019-01-23T02:37:45.831Z,33.70
2019-01-23T02:40:19.369Z,33.80
2019-01-23T02:42:47.787Z,36.40
2019-01-23T02:45:16.563Z,29.50
2019-01-23T02:47:45.357Z,34.90
2019-01-23T02:50:15.235Z,34.07
2019-01-23T02:52:43.650Z,28.13
2019-01-23T02:55:12.630Z,29.47
2019-01-23T02:57:41.323Z,29.43
2019-01-23T03:00:18.271Z,30.30
2019-01-23T03:02:47.235Z,31.53
2019-01-23T03:05:17.495Z,32.23
2019-01-23T03:07:46.004Z,32.33
2019-01-23T03:10:17.412Z,32.13
2019-01-23T03:12:45.991Z,29.13
2019-01-23T03:15:16.255Z,30.37
2019-01-23T03:17:44.779Z,35.97
2019-01-23T03:20:15.552Z,30.77
2019-01-23T03:22:44.154Z,31.87
2019-01-23T03:25:13.817Z,30.43
2019-01-23T03:27:42.312Z,29.27
2019-01-23T03:30:18.980Z,32.90
2019-01-23T03:32:47.581Z,33.43
2019-01-23T03:35:16.670Z,34.10
2019-01-23T03:37:45.129Z,32.33
2019-01-23T03:40:18.951Z,29.20
2019-01-23T03:42:47.374Z,32.17
2019-01-23T03:45:17.159Z,31.10
2019-01-23T03:47:45.648Z,31.80
2019-01-23T03:50:18.534Z,33.33
2019-01-23T03:52:46.951Z,30.43
2019-01-23T03:55:16.719Z,33.90
2019-01-23T03:57:45.223Z,30.17
2019-01-23T04:00:16.458Z,32.43
2019-01-23T04:02:45.136Z,39.93
2019-01-23T04:05:13.899Z,32.30
2019-01-23T04:07:42.611Z,36.20
2019-01-23T04:10:13.580Z,37.63
2019-01-23T04:12:42.019Z,29.40
2019-01-23T04:15:12.680Z,29.53
2019-01-23T04:17:41.248Z,35.67
2019-01-23T04:20:15.046Z,36.83
2019-01-23T04:22:44.107Z,33.37
2019-01-23T04:25:13.031Z,31.70
2019-01-23T04:27:41.448Z,36.20
2019-01-23T04:30:15.939Z,30.97
2019-01-23T04:32:44.364Z,37.17
2019-01-23T04:35:12.943Z,32.97
2019-01-23T04:37:42.718Z,30.33
2019-01-23T04:40:13.018Z,29.60
2019-01-23T04:42:41.463Z,29.33
2019-01-23T04:45:12.603Z,37.37
2019-01-23T04:47:41.048Z,29.33
2019-01-23T04:50:15.105Z,29.70
2019-01-23T04:52:57.171Z,32.87
2019-01-23T04:55:25.591Z,33.20
2019-01-23T04:57:54.021Z,34.60
2019-01-23T05:00:24.099Z,37.90
2019-01-23T05:02:52.514Z,31.63
2019-01-23T05:05:21.032Z,34.77
2019-01-23T05:07:49.536Z,39.10
2019-01-23T05:10:17.975Z,35.33
2019-01-23T05:12:46.419Z,27.90
2019-01-23T05:15:15.051Z,33.77
2019-01-23T05:17:43.504Z,36.07
2019-01-23T05:20:16.466Z,36.03
2019-01-23T05:22:44.892Z,37.33
2019-01-23T05:25:13.667Z,36.03
2019-01-23T05:27:42.091Z,37.57
2019-01-23T05:30:16.466Z,35.90
2019-01-23T05:32:44.888Z,38.60
2019-01-23T05:35:13.314Z,37.67
2019-01-23T05:37:41.830Z,33.37
2019-01-23T05:40:11.690Z,38.60
2019-01-23T05:42:40.199Z,37.00
2019-01-23T05:45:12.974Z,36.83
2019-01-23T05:47:41.404Z,38.90
2019-01-23T05:50:13.962Z,33.90
2019-01-23T05:52:42.595Z,36.93
2019-01-23T05:55:12.659Z,32.07
2019-01-23T05:57:41.103Z,36.43
2019-01-23T06:00:12.718Z,37.30
2019-01-23T06:02:41.144Z,33.73
2019-01-23T06:05:10.428Z,31.70
2019-01-23T06:07:38.851Z,35.93
2019-01-23T06:10:09.588Z,32.63
2019-01-23T06:12:38.092Z,29.17
2019-01-23T06:15:09.926Z,34.20
2019-01-23T06:17:38.354Z,33.83
2019-01-23T06:20:19.144Z,37.57
2019-01-23T06:22:47.703Z,35.23
2019-01-23T06:25:16.201Z,28.87
2019-01-23T06:27:44.828Z,37.30
2019-01-23T06:30:16.019Z,36.63
2019-01-23T06:32:44.452Z,39.13
2019-01-23T06:35:13.035Z,36.87
2019-01-23T06:37:41.463Z,33.40
2019-01-23T06:40:12.518Z,39.53
2019-01-23T06:42:41.031Z,42.40
2019-01-23T06:45:12.091Z,39.70
2019-01-23T06:47:40.655Z,38.30
2019-01-23T06:50:17.035Z,38.97
2019-01-23T06:52:45.690Z,36.20
2019-01-23T06:55:14.251Z,34.50
2019-01-23T06:57:42.791Z,35.70
2019-01-23T07:00:17.283Z,34.83
2019-01-23T07:02:44.717Z,40.90
2019-01-23T07:05:13.299Z,40.13
2019-01-23T07:07:41.727Z,38.97
2019-01-23T07:10:13.223Z,43.27
2019-01-23T07:12:41.664Z,46.77
2019-01-23T07:15:11.727Z,46.27
2019-01-23T07:17:40.211Z,53.20
2019-01-23T07:20:20.167Z,50.30
2019-01-23T07:22:48.587Z,50.77
2019-01-23T07:25:17.074Z,42.80
2019-01-23T07:27:45.518Z,45.73
2019-01-23T07:30:24.149Z,49.20
2019-01-23T07:32:49.924Z,47.47
2019-01-23T07:35:18.400Z,44.60
2019-01-23T07:37:46.886Z,42.83
2019-01-23T07:40:15.571Z,45.87
2019-01-23T07:42:43.997Z,42.17
2019-01-23T07:45:18.075Z,38.57
2019-01-23T07:47:46.523Z,46.27
2019-01-23T07:50:15.492Z,44.87
2019-01-23T07:52:44.259Z,36.10
2019-01-23T07:55:15.345Z,38.60
2019-01-23T07:57:43.762Z,44.03
2019-01-23T08:00:15.134Z,39.70
2019-01-23T08:02:43.671Z,37.37
2019-01-23T08:05:23.391Z,43.90
2019-01-23T08:07:55.409Z,42.33
2019-01-23T08:10:24.271Z,41.43
2019-01-23T08:12:53.366Z,41.23
2019-01-23T08:15:27.179Z,30.70
2019-01-23T08:17:55.729Z,43.27
2019-01-23T08:20:29.014Z,37.40
2019-01-23T08:22:57.797Z,40.90
2019-01-23T08:25:26.215Z,38.80
2019-01-23T08:27:54.718Z,35.83
2019-01-23T08:30:24.295Z,37.47
2019-01-23T08:32:52.960Z,36.33
2019-01-23T08:35:21.823Z,42.23
2019-01-23T08:37:50.356Z,38.97
2019-01-23T08:40:19.227Z,42.07
2019-01-23T08:42:47.783Z,37.43
2019-01-23T08:45:16.773Z,39.07
2019-01-23T08:47:45.336Z,41.40
2019-01-23T08:50:19.675Z,41.23
2019-01-23T08:52:48.367Z,41.03
2019-01-23T08:55:16.797Z,43.90
2019-01-23T08:57:45.223Z,40.93
2019-01-23T09:00:16.764Z,41.87
2019-01-23T09:02:45.243Z,38.47
2019-01-23T09:05:14.204Z,40.83
2019-01-23T09:07:42.760Z,38.33
2019-01-23T09:10:14.256Z,44.73
2019-01-23T09:12:42.679Z,40.23
2019-01-23T09:15:14.256Z,46.07
2019-01-23T09:17:42.740Z,41.00
2019-01-23T09:20:14.016Z,39.93
2019-01-23T09:22:42.547Z,39.20
2019-01-23T09:25:13.987Z,37.77
2019-01-23T09:27:42.415Z,40.53
2019-01-23T09:30:25.755Z,37.83
2019-01-23T09:33:02.787Z,44.30
2019-01-23T09:35:54.240Z,43.90
2019-01-23T09:38:51.673Z,40.23
2019-01-23T09:41:47.405Z,39.50
2019-01-23T09:44:30.922Z,38.13
2019-01-23T09:47:23.153Z,38.73
2019-01-23T09:50:06.439Z,36.27
2019-01-23T09:52:40.800Z,32.47
2019-01-23T09:55:10.767Z,37.27
2019-01-23T09:57:41.832Z,35.00
2019-01-23T10:00:19.685Z,38.17
2019-01-23T10:02:48.110Z,38.07
2019-01-23T10:05:16.610Z,34.47
2019-01-23T10:07:45.050Z,37.90
2019-01-23T10:10:18.611Z,36.43
2019-01-23T10:12:47.104Z,31.63
2019-01-23T10:15:18.616Z,34.80
2019-01-23T10:17:47.153Z,34.17
2019-01-23T10:20:15.644Z,35.87
2019-01-23T10:22:44.227Z,36.73
2019-01-23T10:25:12.723Z,38.03
2019-01-23T10:27:41.140Z,39.77
2019-01-23T10:30:12.890Z,37.93
2019-01-23T10:32:41.311Z,36.93
2019-01-23T10:35:12.940Z,35.50
2019-01-23T10:37:41.380Z,41.70
2019-01-23T10:40:12.912Z,34.97
2019-01-23T10:42:41.424Z,34.73
2019-01-23T10:45:11.892Z,37.57
2019-01-23T10:47:40.449Z,33.47
2019-01-23T10:50:12.326Z,38.73
2019-01-23T10:52:40.818Z,40.20
2019-01-23T10:55:10.003Z,34.63
2019-01-23T10:57:38.495Z,37.40
2019-01-23T11:00:15.897Z,37.50
2019-01-23T11:02:44.391Z,37.07
2019-01-23T11:05:15.892Z,39.77
2019-01-23T11:07:44.339Z,38.80
2019-01-23T11:10:18.660Z,42.17
2019-01-23T11:12:47.095Z,43.47
2019-01-23T11:15:15.655Z,36.50
2019-01-23T11:17:44.512Z,41.53
2019-01-23T11:20:15.693Z,39.83
2019-01-23T11:22:44.174Z,40.20
2019-01-23T11:25:14.757Z,43.60
2019-01-23T11:27:44.016Z,37.17
2019-01-23T11:30:21.136Z,40.70
2019-01-23T11:32:49.686Z,44.77
2019-01-23T11:35:18.368Z,40.53
2019-01-23T11:37:46.807Z,46.47
2019-01-23T11:40:18.373Z,45.70
2019-01-23T11:42:46.811Z,47.13
2019-01-23T11:45:15.303Z,47.13
2019-01-23T11:47:43.718Z,42.40
2019-01-23T11:50:21.764Z,51.73
2019-01-23T11:52:48.442Z,38.30
2019-01-23T11:55:17.049Z,43.67
2019-01-23T11:57:45.475Z,45.77
2019-01-23T12:00:26.339Z,46.53
2019-01-23T12:02:54.829Z,47.73
2019-01-23T12:05:23.489Z,47.70
2019-01-23T12:07:52.267Z,49.17
2019-01-23T12:10:23.303Z,47.53
2019-01-23T12:12:51.926Z,46.83
2019-01-23T12:15:24.551Z,44.17
2019-01-23T12:17:53.038Z,55.67
2019-01-23T12:20:22.606Z,47.07
2019-01-23T12:22:51.110Z,42.93
2019-01-23T12:25:19.683Z,48.03
2019-01-23T12:27:48.103Z,51.63
2019-01-23T12:30:25.668Z,50.30
2019-01-23T12:32:54.159Z,42.57
2019-01-23T12:35:22.583Z,49.87
2019-01-23T12:37:51.095Z,45.50
2019-01-23T12:40:19.592Z,41.23
2019-01-23T12:42:48.187Z,50.30
2019-01-23T12:45:28.308Z,49.73
2019-01-23T12:47:56.819Z,47.63
2019-01-23T12:50:28.059Z,46.93
2019-01-23T12:52:56.558Z,39.73
2019-01-23T12:55:24.992Z,50.20
2019-01-23T12:57:53.451Z,45.80
2019-01-23T13:00:27.136Z,44.07
2019-01-23T13:02:55.698Z,45.93
2019-01-23T13:05:24.479Z,46.37
2019-01-23T13:07:53.055Z,45.60
2019-01-23T13:10:23.523Z,44.00
2019-01-23T13:12:53.406Z,47.33
2019-01-23T13:15:26.535Z,42.77
2019-01-23T13:17:55.798Z,46.33
2019-01-23T13:20:26.275Z,55.00
2019-01-23T13:22:55.133Z,42.70
2019-01-23T13:25:25.520Z,44.33
2019-01-23T13:27:54.118Z,43.00
2019-01-23T13:30:24.479Z,45.83
2019-01-23T13:32:53.059Z,49.27
2019-01-23T13:35:43.852Z,47.13
2019-01-23T13:38:13.128Z,48.60
2019-01-23T13:40:41.889Z,53.83
2019-01-23T13:43:10.402Z,46.03
2019-01-23T13:45:38.837Z,52.00
2019-01-23T13:48:07.733Z,49.60
2019-01-23T13:50:36.237Z,49.30
2019-01-23T13:53:04.918Z,62.07
2019-01-23T13:55:33.362Z,49.43
2019-01-23T13:58:01.795Z,55.83
2019-01-23T14:00:36.245Z,60.20
2019-01-23T14:03:05.419Z,56.43
2019-01-23T14:05:34.222Z,55.87
2019-01-23T14:08:02.813Z,55.37
2019-01-23T14:10:31.234Z,58.73
2019-01-23T14:12:59.755Z,54.03
2019-01-23T14:15:33.870Z,49.83
2019-01-23T14:18:02.535Z,49.70
2019-01-23T14:20:31.067Z,48.23
2019-01-23T14:22:59.565Z,44.10
2019-01-23T14:25:28.093Z,48.00
2019-01-23T14:27:56.601Z,50.37
2019-01-23T14:30:33.620Z,45.27
2019-01-23T14:33:02.191Z,43.93
2019-01-23T14:35:31.251Z,47.70
2019-01-23T14:38:00.731Z,50.80
2019-01-23T14:40:29.684Z,47.97
2019-01-23T14:42:58.202Z,57.63
2019-01-23T14:45:26.705Z,53.53
2019-01-23T14:47:55.206Z,54.30
2019-01-23T14:50:25.002Z,47.67
2019-01-23T14:52:54.160Z,57.97
2019-01-23T14:55:22.694Z,51.30
2019-01-23T14:57:51.205Z,50.23
2019-01-23T15:00:22.436Z,46.50
2019-01-23T15:02:51.162Z,50.73
2019-01-23T15:05:19.665Z,50.53
2019-01-23T15:07:49.284Z,51.83
2019-01-23T15:10:22.701Z,54.43
2019-01-23T15:12:51.281Z,51.60
2019-01-23T15:15:19.865Z,57.10
2019-01-23T15:17:48.436Z,56.83
2019-01-23T15:20:22.953Z,62.30
2019-01-23T15:22:51.451Z,53.70
2019-01-23T15:25:20.024Z,57.77
2019-01-23T15:27:48.473Z,56.10
2019-01-23T15:30:20.552Z,53.87
2019-01-23T15:32:49.312Z,62.50
2019-01-23T15:35:19.861Z,54.23
2019-01-23T15:37:48.662Z,54.10
2019-01-23T15:40:25.931Z,55.13
2019-01-23T15:42:54.477Z,59.30
2019-01-23T15:45:23.004Z,55.97
2019-01-23T15:47:51.500Z,60.97
2019-01-23T15:50:24.855Z,60.73
2019-01-23T15:52:53.405Z,59.07
2019-01-23T15:55:23.684Z,60.80
2019-01-23T15:57:52.442Z,56.80
2019-01-23T16:00:26.268Z,55.03
2019-01-23T16:02:54.864Z,61.77
2019-01-23T16:05:23.295Z,64.60
2019-01-23T16:07:51.728Z,63.60
2019-01-23T16:10:25.445Z,57.97
2019-01-23T16:12:53.961Z,61.47
2019-01-23T16:15:27.357Z,60.87
2019-01-23T16:17:57.475Z,53.43
2019-01-23T16:20:26.987Z,61.10
2019-01-23T16:22:55.807Z,56.80
2019-01-23T16:25:26.124Z,69.67
2019-01-23T16:27:54.561Z,53.30
2019-01-23T16:30:36.631Z,62.97
2019-01-23T16:33:05.418Z,53.30
2019-01-23T16:35:38.606Z,53.23
2019-01-23T16:38:05.680Z,55.63
2019-01-23T16:40:34.200Z,56.43
2019-01-23T16:43:02.785Z,66.83
2019-01-23T16:45:31.228Z,59.93
2019-01-23T16:47:59.712Z,60.67
2019-01-23T16:50:29.188Z,53.20
2019-01-23T16:52:57.645Z,54.50
2019-01-23T16:55:26.221Z,48.80
2019-01-23T16:57:55.084Z,40.57
2019-01-23T17:00:25.903Z,44.30
2019-01-23T17:02:54.748Z,50.60
2019-01-23T17:05:25.975Z,46.57
2019-01-23T17:07:55.245Z,53.07
2019-01-23T17:10:25.533Z,50.07
2019-01-23T17:12:54.298Z,53.37
2019-01-23T17:15:22.969Z,49.97
2019-01-23T17:17:51.961Z,51.63
2019-01-23T17:20:23.477Z,43.63
2019-01-23T17:22:51.912Z,48.00
2019-01-23T17:25:20.448Z,49.13
2019-01-23T17:27:49.284Z,49.80
2019-01-23T17:30:19.201Z,44.90
2019-01-23T17:32:47.868Z,59.17
2019-01-23T17:35:18.841Z,53.17
2019-01-23T17:37:47.437Z,55.13
2019-01-23T17:40:18.507Z,53.03
2019-01-23T17:42:47.080Z,60.80
2019-01-23T17:45:22.634Z,50.80
2019-01-23T17:47:51.438Z,53.20
2019-01-23T17:50:21.930Z,52.03
2019-01-23T17:52:50.905Z,57.70
2019-01-23T17:55:22.290Z,55.73
2019-01-23T17:57:50.734Z,48.23
2019-01-23T18:00:23.713Z,43.40
2019-01-23T18:02:53.402Z,42.67
2019-01-23T18:05:21.968Z,51.53
2019-01-23T18:07:50.399Z,46.93
2019-01-23T18:10:18.917Z,55.00
2019-01-23T18:12:47.422Z,49.30
2019-01-23T18:15:19.090Z,55.80
2019-01-23T18:17:47.534Z,51.10
2019-01-23T18:20:21.672Z,52.97
2019-01-23T18:22:50.133Z,49.73
2019-01-23T18:25:18.560Z,51.20
2019-01-23T18:27:47.081Z,62.50
2019-01-23T18:30:36.880Z,57.93
2019-01-23T18:33:08.931Z,51.73
2019-01-23T18:35:55.570Z,54.90
2019-01-23T18:38:36.293Z,52.33
2019-01-23T18:41:30.604Z,59.63
2019-01-23T18:44:07.775Z,45.97
2019-01-23T18:46:47.931Z,50.63
2019-01-23T18:49:31.568Z,45.40
2019-01-23T18:52:13.887Z,57.07
2019-01-23T18:54:43.818Z,46.77
2019-01-23T18:57:15.385Z,46.93
2019-01-23T18:59:43.954Z,50.13
2019-01-23T19:02:12.564Z,62.90
2019-01-23T19:04:41.333Z,61.63
2019-01-23T19:07:09.927Z,52.67
2019-01-23T19:09:39.408Z,58.97
2019-01-23T19:12:07.980Z,51.57
2019-01-23T19:14:36.431Z,58.57
2019-01-23T19:17:05.415Z,48.27
2019-01-23T19:19:33.862Z,43.50
2019-01-23T19:22:02.429Z,42.57
2019-01-23T19:24:30.862Z,38.63
2019-01-23T19:26:59.312Z,44.07
2019-01-23T19:29:27.819Z,42.83
2019-01-23T19:31:56.357Z,38.50
2019-01-23T19:34:24.795Z,44.27
2019-01-23T19:36:53.318Z,45.23
2019-01-23T19:39:21.757Z,43.50
2019-01-23T19:41:50.222Z,45.97
2019-01-23T19:44:18.680Z,37.07
2019-01-23T19:46:47.230Z,37.50
2019-01-23T19:49:16.138Z,38.73
2019-01-23T19:51:44.713Z,44.40
2019-01-23T19:54:13.145Z,46.13
2019-01-23T19:56:41.601Z,42.47
2019-01-23T19:59:10.038Z,42.07
2019-01-23T20:01:38.538Z,39.87
2019-01-23T20:04:07.260Z,44.00
2019-01-23T20:06:35.761Z,39.13
2019-01-23T20:09:07.220Z,36.17
2019-01-23T20:11:35.659Z,43.73
2019-01-23T20:14:04.934Z,42.57
2019-01-23T20:16:33.428Z,38.70
2019-01-23T20:19:03.507Z,39.77
2019-01-23T20:21:31.960Z,42.20
2019-01-23T20:24:00.540Z,42.30
2019-01-23T20:26:29.064Z,47.43
2019-01-23T20:28:57.516Z,40.83
2019-01-23T20:31:26.000Z,40.77
2019-01-23T20:33:54.471Z,43.13
2019-01-23T20:36:23.001Z,43.77
2019-01-23T20:38:51.768Z,46.30
2019-01-23T20:41:20.196Z,46.07
2019-01-23T20:43:48.656Z,46.67
2019-01-23T20:46:17.100Z,40.40
2019-01-23T20:48:45.543Z,42.23
2019-01-23T20:51:13.999Z,43.60
2019-01-23T20:53:42.439Z,45.63
2019-01-23T20:56:11.037Z,45.67
2019-01-23T20:58:41.002Z,56.00
2019-01-23T21:01:09.429Z,43.27
2019-01-23T21:03:37.880Z,51.37
2019-01-23T21:06:06.455Z,46.60
2019-01-23T21:08:34.911Z,49.03
2019-01-23T21:11:03.417Z,48.47
2019-01-23T21:13:31.914Z,55.30
2019-01-23T21:16:00.370Z,59.77
2019-01-23T21:18:28.805Z,60.57
2019-01-23T21:20:57.269Z,50.77
2019-01-23T21:23:25.700Z,56.57
2019-01-23T21:25:54.200Z,53.30
2019-01-23T21:28:22.667Z,53.17
2019-01-23T21:30:51.105Z,54.37
2019-01-23T21:33:19.563Z,55.70
2019-01-23T21:35:48.003Z,53.40
2019-01-23T21:38:16.585Z,61.20
2019-01-23T21:40:45.123Z,58.80
2019-01-23T21:43:13.583Z,52.63
2019-01-23T21:45:42.197Z,47.37
2019-01-23T21:48:10.705Z,54.17
2019-01-23T21:50:39.247Z,57.27
2019-01-23T21:53:07.849Z,53.73
2019-01-23T21:55:36.363Z,51.10
2019-01-23T21:58:05.713Z,51.50
2019-01-23T22:00:36.901Z,65.43
2019-01-23T22:03:07.791Z,57.10
2019-01-23T22:05:36.383Z,55.83
2019-01-23T22:08:05.759Z,57.63
2019-01-23T22:10:34.468Z,57.73
2019-01-23T22:13:02.896Z,55.87
2019-01-23T22:15:32.966Z,57.53
2019-01-23T22:18:01.424Z,57.33
2019-01-23T22:20:29.932Z,51.73
2019-01-23T22:22:58.388Z,50.63
2019-01-23T22:25:26.832Z,56.00
2019-01-23T22:27:55.711Z,52.77
2019-01-23T22:30:29.440Z,56.67
2019-01-23T22:32:57.940Z,52.90
2019-01-23T22:35:26.666Z,57.20
2019-01-23T22:37:55.096Z,52.97
2019-01-23T22:40:23.698Z,57.30
2019-01-23T22:42:52.267Z,52.63
2019-01-23T22:45:21.546Z,56.27
2019-01-23T22:47:50.446Z,52.30
2019-01-23T22:50:21.030Z,51.00
2019-01-23T22:52:49.779Z,55.10
2019-01-23T22:55:18.397Z,50.40
2019-01-23T22:57:46.980Z,54.10
2019-01-23T23:00:38.032Z,53.70
2019-01-23T23:03:08.430Z,55.17
2019-01-23T23:05:36.940Z,53.83
2019-01-23T23:08:06.148Z,51.60
2019-01-23T23:10:34.643Z,58.87
2019-01-23T23:13:03.109Z,55.17
2019-01-23T23:15:31.546Z,51.80
2019-01-23T23:18:01.882Z,53.97
2019-01-23T23:20:30.445Z,59.67
2019-01-23T23:22:58.882Z,62.30
2019-01-23T23:25:27.335Z,60.97
2019-01-23T23:27:55.767Z,61.20
2019-01-23T23:30:25.216Z,58.90
2019-01-23T23:32:53.736Z,53.10
2019-01-23T23:35:22.536Z,54.67
2019-01-23T23:37:51.014Z,49.57
2019-01-23T23:40:19.757Z,54.10
2019-01-23T23:42:48.346Z,57.30
2019-01-23T23:45:18.439Z,59.63
2019-01-23T23:47:46.886Z,57.63
2019-01-23T23:50:16.697Z,59.20
2019-01-23T23:52:45.670Z,58.10
2019-01-23T23:55:15.385Z,58.33
2019-01-23T23:57:43.968Z,58.13
